createdAt,value
2018-09-29T00:02:17.128Z,60.09
2018-09-29T00:04:44.720Z,59.90
2018-09-29T00:07:12.683Z,60.19
2018-09-29T00:09:40.283Z,59.46
2018-09-29T00:12:07.967Z,59.59
2018-09-29T00:14:35.584Z,60.00
2018-09-29T00:17:03.221Z,60.12
2018-09-29T00:19:30.831Z,60.15
2018-09-29T00:21:58.454Z,59.75
2018-09-29T00:24:26.016Z,59.99
2018-09-29T00:26:53.699Z,60.26
2018-09-29T00:29:21.295Z,60.17
2018-09-29T00:31:48.881Z,59.69
2018-09-29T00:34:16.512Z,59.71
2018-09-29T00:36:44.089Z,59.58
2018-09-29T00:39:11.735Z,59.89
2018-09-29T00:41:39.295Z,60.15
2018-09-29T00:44:06.872Z,59.87
2018-09-29T00:46:34.497Z,59.79
2018-09-29T00:49:02.148Z,59.83
2018-09-29T00:51:29.742Z,60.28
2018-09-29T00:53:57.320Z,59.84
2018-09-29T00:56:25.170Z,59.86
2018-09-29T00:58:52.761Z,59.68
2018-09-29T01:01:20.348Z,59.97
2018-09-29T01:03:47.984Z,60.05
2018-09-29T01:06:15.583Z,59.85
2018-09-29T01:08:43.156Z,59.73
2018-09-29T01:11:10.791Z,59.89
2018-09-29T01:13:38.379Z,59.80
2018-09-29T01:16:05.936Z,59.77
2018-09-29T01:18:33.535Z,59.94
2018-09-29T01:21:01.408Z,59.79
2018-09-29T01:23:29.027Z,59.78
2018-09-29T01:25:56.639Z,59.95
2018-09-29T01:28:24.242Z,59.96
2018-09-29T01:30:51.851Z,59.91
2018-09-29T01:33:19.542Z,60.04
2018-09-29T01:35:47.140Z,59.50
2018-09-29T01:38:14.738Z,59.87
2018-09-29T01:40:42.336Z,59.70
2018-09-29T01:46:00.324Z,59.62
2018-09-29T01:48:28.308Z,60.00
2018-09-29T01:50:55.963Z,59.52
2018-09-29T01:53:23.592Z,59.67
2018-09-29T01:55:51.170Z,59.73
2018-09-29T01:58:18.755Z,59.82
2018-09-29T02:00:46.368Z,59.58
2018-09-29T02:03:14.020Z,59.37
2018-09-29T02:05:42.311Z,59.51
2018-09-29T02:08:09.926Z,59.70
2018-09-29T02:10:37.501Z,60.01
2018-09-29T02:13:05.131Z,59.50
2018-09-29T02:15:33.532Z,59.70
2018-09-29T02:18:01.209Z,59.57
2018-09-29T02:20:29.062Z,59.50
2018-09-29T02:22:56.674Z,59.38
2018-09-29T02:25:24.580Z,59.34
2018-09-29T02:27:52.211Z,59.38
2018-09-29T02:30:20.083Z,59.44
2018-09-29T02:32:47.753Z,59.21
2018-09-29T02:35:15.311Z,59.71
2018-09-29T02:37:43.027Z,59.62
2018-09-29T02:40:10.588Z,59.55
2018-09-29T02:42:38.177Z,59.43
2018-09-29T02:45:06.302Z,59.49
2018-09-29T02:47:33.917Z,59.49
2018-09-29T02:50:01.526Z,59.51
2018-09-29T02:52:29.148Z,59.34
2018-09-29T02:54:56.788Z,59.38
2018-09-29T02:57:24.382Z,59.06
2018-09-29T02:59:51.987Z,59.72
2018-09-29T03:02:19.634Z,59.39
2018-09-29T03:04:47.231Z,59.38
2018-09-29T03:07:14.886Z,59.47
2018-09-29T03:09:42.455Z,59.67
2018-09-29T03:12:10.039Z,59.62
2018-09-29T03:14:37.648Z,59.58
2018-09-29T03:17:05.271Z,59.61
2018-09-29T03:19:32.868Z,59.48
2018-09-29T03:22:00.448Z,59.70
2018-09-29T03:24:28.086Z,59.41
2018-09-29T03:26:55.675Z,59.48
2018-09-29T03:29:23.296Z,59.51
2018-09-29T03:31:51.013Z,59.36
2018-09-29T03:34:18.560Z,59.55
2018-09-29T03:36:46.240Z,59.36
2018-09-29T03:39:13.838Z,59.42
2018-09-29T03:41:41.452Z,59.44
2018-09-29T03:44:09.517Z,59.39
2018-09-29T03:46:37.170Z,59.44
2018-09-29T03:49:04.737Z,59.36
2018-09-29T03:51:32.342Z,59.38
2018-09-29T03:54:00.199Z,59.46
2018-09-29T03:56:27.796Z,59.27
2018-09-29T03:58:55.380Z,59.37
2018-09-29T04:01:23.044Z,59.35
2018-09-29T04:03:50.625Z,59.33
2018-09-29T04:06:18.197Z,59.18
2018-09-29T04:08:45.832Z,59.17
2018-09-29T04:11:13.442Z,59.38
2018-09-29T04:13:41.057Z,59.29
2018-09-29T04:16:08.656Z,59.07
2018-09-29T04:18:36.260Z,59.23
2018-09-29T04:21:03.918Z,59.15
2018-09-29T04:23:31.505Z,59.33
2018-09-29T04:25:59.114Z,59.35
2018-09-29T04:28:26.719Z,59.09
2018-09-29T04:30:54.337Z,59.37
2018-09-29T04:33:21.968Z,59.18
2018-09-29T04:35:49.547Z,59.41
2018-09-29T04:38:17.532Z,59.23
2018-09-29T04:40:45.105Z,59.27
2018-09-29T04:43:12.749Z,59.37
2018-09-29T04:45:40.319Z,59.17
2018-09-29T04:48:07.928Z,58.97
2018-09-29T04:50:35.544Z,58.92
2018-09-29T04:53:03.120Z,59.25
2018-09-29T04:55:30.758Z,59.09
2018-09-29T04:57:58.347Z,59.17
2018-09-29T05:00:26.024Z,58.99
2018-09-29T05:02:53.625Z,59.09
2018-09-29T05:05:21.208Z,59.21
2018-09-29T05:07:48.811Z,59.13
2018-09-29T05:10:16.415Z,58.95
2018-09-29T05:12:43.988Z,59.14
2018-09-29T05:15:11.708Z,58.96
2018-09-29T05:17:39.329Z,59.06
2018-09-29T05:20:07.192Z,58.99
2018-09-29T05:22:34.756Z,58.75
2018-09-29T05:25:02.326Z,59.05
2018-09-29T05:27:29.938Z,58.71
2018-09-29T05:29:57.543Z,58.86
2018-09-29T05:32:25.168Z,58.90
2018-09-29T05:34:52.732Z,58.78
2018-09-29T05:37:20.304Z,58.74
2018-09-29T05:39:47.848Z,58.56
2018-09-29T05:42:15.431Z,58.74
2018-09-29T05:44:42.991Z,58.71
2018-09-29T05:47:10.642Z,58.59
2018-09-29T05:49:38.240Z,58.78
2018-09-29T05:52:05.894Z,58.52
2018-09-29T05:54:33.746Z,58.56
2018-09-29T05:57:01.355Z,58.58
2018-09-29T05:59:29.001Z,58.46
2018-09-29T06:01:56.719Z,58.62
2018-09-29T06:04:24.516Z,58.64
2018-09-29T06:06:52.125Z,58.44
2018-09-29T06:09:19.711Z,58.62
2018-09-29T06:11:47.323Z,58.37
2018-09-29T06:14:14.901Z,58.50
2018-09-29T06:16:42.523Z,58.26
2018-09-29T06:19:10.116Z,58.50
2018-09-29T06:21:37.680Z,58.25
2018-09-29T06:24:05.314Z,58.29
2018-09-29T06:26:32.903Z,58.44
2018-09-29T06:29:00.476Z,58.16
2018-09-29T06:31:28.088Z,58.30
2018-09-29T06:33:55.668Z,58.28
2018-09-29T06:36:23.244Z,58.17
2018-09-29T06:38:50.847Z,58.24
2018-09-29T06:41:18.500Z,58.11
2018-09-29T06:43:46.084Z,57.83
2018-09-29T06:46:13.657Z,57.94
2018-09-29T06:48:41.263Z,58.00
2018-09-29T06:51:08.831Z,57.91
2018-09-29T06:53:36.558Z,57.95
2018-09-29T06:56:04.148Z,57.66
2018-09-29T06:58:31.715Z,57.61
2018-09-29T07:00:59.313Z,57.58
2018-09-29T07:03:26.903Z,57.71
2018-09-29T07:05:54.480Z,57.64
2018-09-29T07:08:22.097Z,57.45
2018-09-29T07:10:49.724Z,57.38
2018-09-29T07:13:17.304Z,57.40
2018-09-29T07:15:44.886Z,57.49
2018-09-29T07:18:12.517Z,57.51
2018-09-29T07:20:40.104Z,57.60
2018-09-29T07:23:07.685Z,57.27
2018-09-29T07:25:35.374Z,57.34
2018-09-29T07:28:02.954Z,57.24
2018-09-29T07:30:30.568Z,57.20
2018-09-29T07:32:58.175Z,57.23
2018-09-29T07:35:25.811Z,57.30
2018-09-29T07:37:53.364Z,57.01
2018-09-29T07:40:20.983Z,57.07
2018-09-29T07:42:48.575Z,57.01
2018-09-29T07:45:16.216Z,56.99
2018-09-29T07:47:43.794Z,56.83
2018-09-29T07:50:11.433Z,56.73
2018-09-29T07:52:39.056Z,56.57
2018-09-29T07:55:06.646Z,56.39
2018-09-29T07:57:34.243Z,56.54
2018-09-29T08:00:01.890Z,56.81
2018-09-29T08:02:29.499Z,56.18
2018-09-29T08:04:57.300Z,56.23
2018-09-29T08:07:24.891Z,56.22
2018-09-29T08:09:52.450Z,55.99
2018-09-29T08:12:20.091Z,55.73
2018-09-29T08:14:47.670Z,55.61
2018-09-29T08:17:15.282Z,56.02
2018-09-29T08:19:42.888Z,55.58
2018-09-29T08:22:10.479Z,55.70
2018-09-29T08:24:38.072Z,55.46
2018-09-29T08:27:05.660Z,55.94
2018-09-29T08:29:33.239Z,55.46
2018-09-29T08:32:00.888Z,55.93
2018-09-29T08:34:28.470Z,55.97
2018-09-29T08:36:56.035Z,55.91
2018-09-29T08:39:23.658Z,55.22
2018-09-29T08:41:51.321Z,55.62
2018-09-29T08:44:18.943Z,55.13
2018-09-29T08:46:46.589Z,55.21
2018-09-29T08:49:14.168Z,55.39
2018-09-29T08:51:41.766Z,55.49
2018-09-29T08:54:09.662Z,55.09
2018-09-29T08:56:37.287Z,55.46
2018-09-29T08:59:04.904Z,54.85
2018-09-29T09:01:32.587Z,54.94
2018-09-29T09:04:00.356Z,54.74
2018-09-29T09:06:27.985Z,55.18
2018-09-29T09:08:55.648Z,55.31
2018-09-29T09:11:23.239Z,55.23
2018-09-29T09:13:50.804Z,55.04
2018-09-29T09:16:18.419Z,55.09
2018-09-29T09:18:46.058Z,54.63
2018-09-29T09:21:13.697Z,54.42
2018-09-29T09:23:41.311Z,54.93
2018-09-29T09:26:08.888Z,54.31
2018-09-29T09:28:36.520Z,54.32
2018-09-29T09:31:04.148Z,54.34
2018-09-29T09:33:31.725Z,54.14
2018-09-29T09:35:59.371Z,54.28
2018-09-29T09:38:26.987Z,54.34
2018-09-29T09:40:54.572Z,54.98
2018-09-29T09:43:22.179Z,54.91
2018-09-29T09:45:49.883Z,54.92
2018-09-29T09:48:17.484Z,54.94
2018-09-29T09:50:45.300Z,54.36
2018-09-29T09:53:12.899Z,54.34
2018-09-29T09:55:40.479Z,54.16
2018-09-29T09:58:08.080Z,54.68
2018-09-29T10:00:41.356Z,54.45
2018-09-29T10:03:14.660Z,54.47
2018-09-29T10:05:42.280Z,54.11
2018-09-29T10:08:09.885Z,54.03
2018-09-29T10:10:37.484Z,53.79
2018-09-29T10:13:05.104Z,53.98
2018-09-29T10:15:32.704Z,53.55
2018-09-29T10:18:00.296Z,53.79
2018-09-29T10:20:27.863Z,53.69
2018-09-29T10:22:55.475Z,54.12
2018-09-29T10:25:23.079Z,53.77
2018-09-29T10:27:50.958Z,53.85
2018-09-29T10:30:18.499Z,53.98
2018-09-29T10:32:46.189Z,53.85
2018-09-29T10:35:13.812Z,53.88
2018-09-29T10:37:41.448Z,53.67
2018-09-29T10:40:09.076Z,53.67
2018-09-29T10:42:36.662Z,52.88
2018-09-29T10:45:04.327Z,53.26
2018-09-29T10:47:31.966Z,53.31
2018-09-29T10:49:59.906Z,52.63
2018-09-29T10:52:27.495Z,52.18
2018-09-29T10:54:55.102Z,52.11
2018-09-29T10:57:22.828Z,52.24
2018-09-29T10:59:50.800Z,51.99
2018-09-29T11:02:18.616Z,52.00
2018-09-29T11:04:46.188Z,52.40
2018-09-29T11:07:13.823Z,51.86
2018-09-29T11:09:41.420Z,51.72
2018-09-29T11:12:09.063Z,52.46
2018-09-29T11:14:36.669Z,51.57
2018-09-29T11:17:04.268Z,51.73
2018-09-29T11:19:31.832Z,52.17
2018-09-29T11:21:59.429Z,52.48
2018-09-29T11:24:27.000Z,52.46
2018-09-29T11:26:54.583Z,52.65
2018-09-29T11:29:22.149Z,52.65
2018-09-29T11:31:49.787Z,52.90
2018-09-29T11:34:17.367Z,52.97
2018-09-29T11:36:44.959Z,52.75
2018-09-29T11:39:12.999Z,52.75
2018-09-29T11:41:40.879Z,52.64
2018-09-29T11:44:08.899Z,52.37
2018-09-29T11:46:36.534Z,52.65
2018-09-29T11:49:04.152Z,52.69
2018-09-29T11:51:31.756Z,51.99
2018-09-29T11:53:59.616Z,52.34
2018-09-29T11:56:27.243Z,52.41
2018-09-29T11:58:55.048Z,52.49
2018-09-29T12:01:22.667Z,51.88
2018-09-29T12:03:50.272Z,52.54
2018-09-29T12:06:17.907Z,51.86
2018-09-29T12:08:45.591Z,52.25
2018-09-29T12:11:13.237Z,52.28
2018-09-29T12:13:40.845Z,52.21
2018-09-29T12:16:08.600Z,51.70
2018-09-29T12:18:36.229Z,51.59
2018-09-29T12:21:04.033Z,52.03
2018-09-29T12:23:31.658Z,52.02
2018-09-29T12:25:59.244Z,52.20
2018-09-29T12:28:26.832Z,51.58
2018-09-29T12:30:54.424Z,51.57
2018-09-29T12:33:22.124Z,51.87
2018-09-29T12:35:49.750Z,51.81
2018-09-29T12:38:17.367Z,51.82
2018-09-29T12:40:44.956Z,52.30
2018-09-29T12:43:12.543Z,51.56
2018-09-29T12:45:40.144Z,51.38
2018-09-29T12:48:07.739Z,50.92
2018-09-29T12:50:35.358Z,51.12
2018-09-29T12:53:02.992Z,51.69
2018-09-29T12:55:30.562Z,50.93
2018-09-29T12:57:58.184Z,51.44
2018-09-29T13:00:25.802Z,50.75
2018-09-29T13:02:53.384Z,50.68
2018-09-29T13:05:21.248Z,51.32
2018-09-29T13:07:48.839Z,51.42
2018-09-29T13:10:16.453Z,50.88
2018-09-29T13:12:44.105Z,51.68
2018-09-29T13:15:11.694Z,51.65
2018-09-29T13:17:39.309Z,51.37
2018-09-29T13:20:06.992Z,51.85
2018-09-29T13:22:34.642Z,51.93
2018-09-29T13:25:02.285Z,51.99
2018-09-29T13:27:29.885Z,52.18
2018-09-29T13:29:57.531Z,51.36
2018-09-29T13:32:25.136Z,51.48
2018-09-29T13:34:52.818Z,52.22
2018-09-29T13:37:20.477Z,51.49
2018-09-29T13:39:48.126Z,51.84
2018-09-29T13:42:15.741Z,52.07
2018-09-29T13:44:43.361Z,52.20
2018-09-29T13:47:10.977Z,51.79
2018-09-29T13:49:38.559Z,52.32
2018-09-29T13:52:06.218Z,51.84
2018-09-29T13:54:33.839Z,52.44
2018-09-29T13:57:01.441Z,52.48
2018-09-29T13:59:29.031Z,52.43
2018-09-29T14:01:56.590Z,51.97
2018-09-29T14:04:24.175Z,52.40
2018-09-29T14:06:51.800Z,51.95
2018-09-29T14:09:19.445Z,52.16
2018-09-29T14:11:47.074Z,52.57
2018-09-29T14:14:14.648Z,51.75
2018-09-29T14:16:42.216Z,52.27
2018-09-29T14:19:10.125Z,52.62
2018-09-29T14:21:37.699Z,52.28
2018-09-29T14:24:05.279Z,51.93
2018-09-29T14:26:32.888Z,52.13
2018-09-29T14:29:00.508Z,52.29
2018-09-29T14:31:28.075Z,52.63
2018-09-29T14:33:55.733Z,51.98
2018-09-29T14:36:23.350Z,52.08
2018-09-29T14:38:50.965Z,52.60
2018-09-29T14:41:18.617Z,52.63
2018-09-29T14:43:46.228Z,51.94
2018-09-29T14:46:13.823Z,51.88
2018-09-29T14:48:41.428Z,52.18
2018-09-29T14:51:09.050Z,51.85
2018-09-29T14:53:36.622Z,52.19
2018-09-29T14:56:04.239Z,50.33
2018-09-29T14:58:31.833Z,49.43
2018-09-29T15:00:59.479Z,50.12
2018-09-29T15:03:27.084Z,48.87
2018-09-29T15:05:54.674Z,49.54
2018-09-29T15:08:22.248Z,50.03
2018-09-29T15:10:49.864Z,50.28
2018-09-29T15:13:17.481Z,50.14
2018-09-29T15:15:45.071Z,50.98
2018-09-29T15:18:12.679Z,51.02
2018-09-29T15:20:40.232Z,51.20
2018-09-29T15:23:07.862Z,50.47
2018-09-29T15:25:35.433Z,49.49
2018-09-29T15:28:03.042Z,48.47
2018-09-29T15:30:30.624Z,47.83
2018-09-29T15:32:58.257Z,48.59
2018-09-29T15:35:25.841Z,48.95
2018-09-29T15:37:53.433Z,50.19
2018-09-29T15:40:21.057Z,50.20
2018-09-29T15:42:48.750Z,49.75
2018-09-29T15:45:16.239Z,49.94
2018-09-29T15:47:43.831Z,50.13
2018-09-29T15:50:11.429Z,50.25
2018-09-29T15:52:39.005Z,50.92
2018-09-29T15:55:06.708Z,50.30
2018-09-29T15:57:34.258Z,50.96
2018-09-29T16:00:01.845Z,51.30
2018-09-29T16:02:29.412Z,50.63
2018-09-29T16:04:57.006Z,50.84
2018-09-29T16:07:25.288Z,51.24
2018-09-29T16:09:52.967Z,51.09
2018-09-29T16:12:20.598Z,51.33
2018-09-29T16:14:48.223Z,51.73
2018-09-29T16:17:15.853Z,52.16
2018-09-29T16:19:43.501Z,52.05
2018-09-29T16:22:11.052Z,51.76
2018-09-29T16:24:38.656Z,52.15
2018-09-29T16:27:06.326Z,52.00
2018-09-29T16:29:33.925Z,51.71
2018-09-29T16:32:01.852Z,51.60
2018-09-29T16:34:29.372Z,51.80
2018-09-29T16:36:56.932Z,51.96
2018-09-29T16:39:24.592Z,52.57
2018-09-29T16:41:52.171Z,52.08
2018-09-29T16:44:19.777Z,52.79
2018-09-29T16:46:47.396Z,52.82
2018-09-29T16:49:15.003Z,52.19
2018-09-29T16:51:42.605Z,52.97
2018-09-29T16:54:10.227Z,53.07
2018-09-29T16:56:37.817Z,52.80
2018-09-29T16:59:05.451Z,52.97
2018-09-29T17:01:33.044Z,52.98
2018-09-29T17:04:00.840Z,53.16
2018-09-29T17:06:28.244Z,53.26
2018-09-29T17:08:55.795Z,53.37
2018-09-29T17:11:23.418Z,53.24
2018-09-29T17:13:51.031Z,52.80
2018-09-29T17:16:18.751Z,52.84
2018-09-29T17:18:46.335Z,52.88
2018-09-29T17:21:13.915Z,53.03
2018-09-29T17:23:41.545Z,53.21
2018-09-29T17:26:09.383Z,53.13
2018-09-29T17:28:36.968Z,53.74
2018-09-29T17:31:04.524Z,53.75
2018-09-29T17:33:32.136Z,53.21
2018-09-29T17:35:59.729Z,53.69
2018-09-29T17:38:27.351Z,53.38
2018-09-29T17:40:54.940Z,53.68
2018-09-29T17:43:22.552Z,53.34
2018-09-29T17:45:50.170Z,53.55
2018-09-29T17:48:17.756Z,53.81
2018-09-29T17:50:45.322Z,53.67
2018-09-29T17:53:12.941Z,53.90
2018-09-29T17:55:40.503Z,53.75
2018-09-29T17:58:08.077Z,53.78
2018-09-29T18:00:35.724Z,53.83
2018-09-29T18:03:03.301Z,53.71
2018-09-29T18:05:30.914Z,53.84
2018-09-29T18:07:58.513Z,53.94
2018-09-29T18:10:26.159Z,53.79
2018-09-29T18:12:53.793Z,53.92
2018-09-29T18:15:21.400Z,53.92
2018-09-29T18:17:49.044Z,54.08
2018-09-29T18:20:16.620Z,54.15
2018-09-29T18:22:44.231Z,54.13
2018-09-29T18:25:11.788Z,54.02
2018-09-29T18:27:39.392Z,54.06
2018-09-29T18:30:07.052Z,54.09
2018-09-29T18:32:34.685Z,54.18
2018-09-29T18:35:02.264Z,54.09
2018-09-29T18:37:29.928Z,54.10
2018-09-29T18:39:57.512Z,54.16
2018-09-29T18:42:25.099Z,54.30
2018-09-29T18:44:52.709Z,54.14
2018-09-29T18:47:20.324Z,54.32
2018-09-29T18:49:47.912Z,54.25
2018-09-29T18:52:15.503Z,54.28
2018-09-29T18:54:43.126Z,54.12
2018-09-29T18:57:10.716Z,54.43
2018-09-29T18:59:38.322Z,54.40
2018-09-29T19:02:05.886Z,54.38
2018-09-29T19:04:33.532Z,54.43
2018-09-29T19:07:01.108Z,54.31
2018-09-29T19:09:28.708Z,54.58
2018-09-29T19:11:56.446Z,54.67
2018-09-29T19:14:24.016Z,54.59
2018-09-29T19:16:51.632Z,54.91
2018-09-29T19:19:19.279Z,54.55
2018-09-29T19:21:46.896Z,54.90
2018-09-29T19:24:14.488Z,54.61
2018-09-29T19:26:42.115Z,54.48
2018-09-29T19:29:09.763Z,54.68
2018-09-29T19:31:37.375Z,54.58
2018-09-29T19:34:05.883Z,54.66
2018-09-29T19:36:33.472Z,55.03
2018-09-29T19:39:01.076Z,54.81
2018-09-29T19:41:28.692Z,54.82
2018-09-29T19:43:56.284Z,54.67
2018-09-29T19:46:23.916Z,54.87
2018-09-29T19:48:51.491Z,55.14
2018-09-29T19:51:19.112Z,54.98
2018-09-29T19:53:46.964Z,55.00
2018-09-29T19:56:14.570Z,54.83
2018-09-29T19:58:42.180Z,55.03
2018-09-29T20:01:09.759Z,54.88
2018-09-29T20:03:37.394Z,54.89
2018-09-29T20:08:39.357Z,54.96
2018-09-29T20:11:06.930Z,54.88
2018-09-29T20:13:34.529Z,54.91
2018-09-29T20:16:02.139Z,55.06
2018-09-29T20:18:29.699Z,54.85
2018-09-29T20:20:57.364Z,55.00
2018-09-29T20:23:24.918Z,55.16
2018-09-29T20:25:52.517Z,55.02
2018-09-29T20:28:20.107Z,55.12
2018-09-29T20:30:47.736Z,55.23
2018-09-29T20:33:15.363Z,55.24
2018-09-29T20:35:42.928Z,55.15
2018-09-29T20:38:10.597Z,55.25
2018-09-29T20:40:38.169Z,55.29
2018-09-29T20:43:05.993Z,55.20
2018-09-29T20:45:33.582Z,55.44
2018-09-29T20:48:01.236Z,55.25
2018-09-29T20:50:28.767Z,55.18
2018-09-29T20:52:56.387Z,55.30
2018-09-29T20:55:24.021Z,55.52
2018-09-29T20:57:51.583Z,55.34
2018-09-29T21:00:19.176Z,55.41
2018-09-29T21:02:46.923Z,55.35
2018-09-29T21:05:14.519Z,55.50
2018-09-29T21:07:42.150Z,55.43
2018-09-29T21:10:09.733Z,55.34
2018-09-29T21:12:37.291Z,55.55
2018-09-29T21:15:04.894Z,55.35
2018-09-29T21:17:32.494Z,55.62
2018-09-29T21:20:00.194Z,55.55
2018-09-29T21:22:27.848Z,55.53
2018-09-29T21:24:55.443Z,55.56
2018-09-29T21:27:23.042Z,55.46
2018-09-29T21:29:51.000Z,55.54
2018-09-29T21:32:18.583Z,55.62
2018-09-29T21:34:46.200Z,55.66
2018-09-29T21:37:13.825Z,55.59
2018-09-29T21:39:41.396Z,55.69
2018-09-29T21:42:08.999Z,55.76
2018-09-29T21:44:36.585Z,55.72
2018-09-29T21:47:04.185Z,55.66
2018-09-29T21:49:31.745Z,55.66
2018-09-29T21:51:59.356Z,55.53
2018-09-29T21:54:26.936Z,55.64
2018-09-29T21:56:54.565Z,55.91
2018-09-29T21:59:22.176Z,55.67
2018-09-29T22:01:49.747Z,55.80
2018-09-29T22:04:17.369Z,55.83
2018-09-29T22:06:44.943Z,55.58
2018-09-29T22:09:17.030Z,55.75
2018-09-29T22:11:44.636Z,55.89
2018-09-29T22:14:12.216Z,55.85
2018-09-29T22:16:39.789Z,56.11
2018-09-29T22:19:07.372Z,55.85
2018-09-29T22:21:34.940Z,55.95
2018-09-29T22:24:02.544Z,56.04
2018-09-29T22:26:30.100Z,55.85
2018-09-29T22:28:57.686Z,55.87
2018-09-29T22:31:25.296Z,55.91
2018-09-29T22:33:53.173Z,56.10
2018-09-29T22:36:20.780Z,56.11
2018-09-29T22:38:48.378Z,56.08
2018-09-29T22:41:16.273Z,56.07
2018-09-29T22:43:43.870Z,55.98
2018-09-29T22:46:11.411Z,56.27
2018-09-29T22:48:39.017Z,56.17
2018-09-29T22:51:06.604Z,55.93
2018-09-29T22:53:34.225Z,56.13
2018-09-29T22:56:01.885Z,56.17
2018-09-29T22:58:29.488Z,56.33
2018-09-29T23:00:57.061Z,56.22
2018-09-29T23:03:24.684Z,56.44
2018-09-29T23:05:52.248Z,56.28
2018-09-29T23:08:19.880Z,56.36
2018-09-29T23:10:47.477Z,56.28
2018-09-29T23:13:15.098Z,56.23
2018-09-29T23:15:42.708Z,56.49
2018-09-29T23:18:10.301Z,56.41
2018-09-29T23:20:37.911Z,56.17
2018-09-29T23:23:05.489Z,56.28
2018-09-29T23:25:33.091Z,56.23
2018-09-29T23:28:00.645Z,56.22
2018-09-29T23:30:28.269Z,56.46
2018-09-29T23:32:55.865Z,56.14
2018-09-29T23:35:23.788Z,56.32
2018-09-29T23:37:51.420Z,56.44
2018-09-29T23:40:18.986Z,56.59
2018-09-29T23:42:46.597Z,56.48
2018-09-29T23:45:14.151Z,56.41
2018-09-29T23:47:41.768Z,56.35
2018-09-29T23:50:09.360Z,56.27
2018-09-29T23:52:36.993Z,56.42
2018-09-29T23:55:04.603Z,56.56
2018-09-29T23:57:32.173Z,56.46
2018-09-29T23:59:59.752Z,56.47
